createdAt,value
2018-03-26T00:00:14.392Z,11.17
2018-03-26T00:00:40.529Z,11.15
2018-03-26T00:01:06.668Z,11.11
2018-03-26T00:01:32.805Z,11.07
2018-03-26T00:01:58.939Z,11.12
2018-03-26T00:02:25.078Z,11.11
2018-03-26T00:02:51.216Z,11.14
2018-03-26T00:03:17.383Z,11.18
2018-03-26T00:03:43.519Z,11.19
2018-03-26T00:04:09.660Z,11.15
2018-03-26T00:04:35.814Z,11.18
2018-03-26T00:05:01.953Z,11.22
2018-03-26T00:05:28.094Z,11.29
2018-03-26T00:05:54.236Z,11.3
2018-03-26T00:06:20.372Z,11.26
2018-03-26T00:06:46.508Z,11.3
2018-03-26T00:07:12.645Z,11.26
2018-03-26T00:07:38.785Z,11.22
2018-03-26T00:08:04.944Z,11.25
2018-03-26T00:08:31.083Z,11.27
2018-03-26T00:08:57.237Z,11.22
2018-03-26T00:09:23.356Z,11.14
2018-03-26T00:09:49.494Z,11.19
2018-03-26T00:10:15.632Z,11.19
2018-03-26T00:10:41.792Z,11.15
2018-03-26T00:11:07.958Z,11.22
2018-03-26T00:11:34.096Z,11.15
2018-03-26T00:12:00.238Z,11.12
2018-03-26T00:12:26.364Z,11.07
2018-03-26T00:12:52.498Z,11.1
2018-03-26T00:13:18.636Z,11.14
2018-03-26T00:13:44.806Z,11.15
2018-03-26T00:14:10.956Z,11.02
2018-03-26T00:14:37.092Z,11.07
2018-03-26T00:15:03.226Z,11.05
2018-03-26T00:15:29.391Z,11.07
2018-03-26T00:15:55.521Z,11.14
2018-03-26T00:16:21.657Z,11.04
2018-03-26T00:16:47.795Z,11.12
2018-03-26T00:17:13.957Z,11.12
2018-03-26T00:17:40.119Z,11.04
2018-03-26T00:18:06.287Z,10.99
2018-03-26T00:18:32.429Z,11.02
2018-03-26T00:18:58.566Z,11.02
2018-03-26T00:19:24.730Z,11.02
2018-03-26T00:19:50.866Z,10.96
2018-03-26T00:20:17.028Z,10.99
2018-03-26T00:20:43.192Z,11
2018-03-26T00:21:09.336Z,11
2018-03-26T00:21:35.497Z,10.99
2018-03-26T00:22:01.637Z,11.04
2018-03-26T00:22:27.793Z,11.05
2018-03-26T00:22:53.930Z,10.99
2018-03-26T00:23:20.064Z,11
2018-03-26T00:23:46.198Z,10.99
2018-03-26T00:24:12.326Z,11.02
2018-03-26T00:24:38.462Z,11.04
2018-03-26T00:25:04.604Z,10.96
2018-03-26T00:25:30.741Z,10.97
2018-03-26T00:25:56.881Z,10.92
2018-03-26T00:26:23.044Z,10.99
2018-03-26T00:26:49.179Z,10.94
2018-03-26T00:27:15.370Z,10.93
2018-03-26T00:27:41.462Z,10.96
2018-03-26T00:28:07.594Z,11
2018-03-26T00:28:33.732Z,10.92
2018-03-26T00:28:59.884Z,10.92
2018-03-26T00:29:26.025Z,10.93
2018-03-26T00:29:52.163Z,10.92
2018-03-26T00:30:18.296Z,10.96
2018-03-26T00:30:44.433Z,11.02
2018-03-26T00:31:10.569Z,10.97
2018-03-26T00:31:36.709Z,11
2018-03-26T00:32:02.856Z,10.94
2018-03-26T00:32:29.035Z,10.92
2018-03-26T00:32:55.177Z,10.86
2018-03-26T00:33:21.313Z,10.9
2018-03-26T00:33:47.451Z,10.87
2018-03-26T00:34:13.592Z,10.79
2018-03-26T00:34:39.751Z,10.86
2018-03-26T00:35:05.889Z,10.89
2018-03-26T00:35:32.028Z,10.99
2018-03-26T00:35:58.185Z,10.84
2018-03-26T00:36:24.327Z,11
2018-03-26T00:36:50.483Z,11.02
2018-03-26T00:37:16.638Z,10.86
2018-03-26T00:37:42.778Z,10.93
2018-03-26T00:38:08.915Z,10.92
2018-03-26T00:38:35.049Z,10.92
2018-03-26T00:39:01.189Z,10.79
2018-03-26T00:39:27.326Z,10.81
2018-03-26T00:39:53.458Z,10.87
2018-03-26T00:40:19.601Z,10.94
2018-03-26T00:40:46.400Z,10.93
2018-03-26T00:41:12.535Z,10.89
2018-03-26T00:41:38.675Z,10.94
2018-03-26T00:42:04.817Z,10.9
2018-03-26T00:42:30.957Z,10.93
2018-03-26T00:42:57.096Z,10.84
2018-03-26T00:43:23.231Z,10.93
2018-03-26T00:43:49.365Z,10.86
2018-03-26T00:44:15.503Z,10.93
2018-03-26T00:44:41.637Z,10.93
2018-03-26T00:45:07.798Z,10.84
2018-03-26T00:45:33.931Z,10.93
2018-03-26T00:46:00.091Z,10.79
2018-03-26T00:46:26.224Z,10.86
2018-03-26T00:46:52.353Z,10.94
2018-03-26T00:47:18.492Z,10.87
2018-03-26T00:47:44.636Z,10.82
2018-03-26T00:48:10.777Z,10.71
2018-03-26T00:48:36.907Z,10.79
2018-03-26T00:49:03.053Z,10.74
2018-03-26T00:49:29.208Z,10.71
2018-03-26T00:49:55.343Z,10.68
2018-03-26T00:50:21.479Z,10.69
2018-03-26T00:50:47.614Z,10.75
2018-03-26T00:51:13.749Z,10.74
2018-03-26T00:51:39.883Z,10.72
2018-03-26T00:52:06.030Z,10.72
2018-03-26T00:52:32.162Z,10.74
2018-03-26T00:52:58.337Z,10.78
2018-03-26T00:53:24.472Z,10.68
2018-03-26T00:53:50.612Z,10.68
2018-03-26T00:54:16.740Z,10.74
2018-03-26T00:54:42.880Z,10.74
2018-03-26T00:55:09.014Z,10.72
2018-03-26T00:55:35.149Z,10.76
2018-03-26T00:56:01.288Z,10.72
2018-03-26T00:56:27.444Z,10.82
2018-03-26T00:56:53.580Z,10.84
2018-03-26T00:57:19.723Z,10.94
2018-03-26T00:57:45.859Z,10.76
2018-03-26T00:58:11.990Z,10.82
2018-03-26T00:58:38.131Z,10.86
2018-03-26T00:59:04.269Z,10.84
2018-03-26T00:59:30.404Z,10.86
2018-03-26T00:59:56.544Z,10.79
2018-03-26T01:00:22.684Z,10.81
2018-03-26T01:00:48.820Z,10.78
2018-03-26T01:01:14.956Z,10.75
2018-03-26T01:01:41.095Z,10.68
2018-03-26T01:02:07.258Z,10.72
2018-03-26T01:02:33.400Z,10.75
2018-03-26T01:02:59.538Z,10.74
2018-03-26T01:03:25.709Z,10.79
2018-03-26T01:03:51.858Z,10.71
2018-03-26T01:04:17.987Z,10.76
2018-03-26T01:04:44.126Z,10.68
2018-03-26T01:05:10.274Z,10.72
2018-03-26T01:05:36.433Z,10.69
2018-03-26T01:06:02.565Z,10.68
2018-03-26T01:06:28.705Z,10.67
2018-03-26T01:06:54.843Z,10.72
2018-03-26T01:07:20.982Z,10.72
2018-03-26T01:07:47.124Z,10.64
2018-03-26T01:08:13.257Z,10.67
2018-03-26T01:08:39.399Z,10.67
2018-03-26T01:09:05.531Z,10.63
2018-03-26T01:09:31.690Z,10.75
2018-03-26T01:09:57.831Z,10.72
2018-03-26T01:10:23.976Z,10.71
2018-03-26T01:10:50.103Z,10.68
2018-03-26T01:11:16.242Z,10.75
2018-03-26T01:11:42.388Z,10.71
2018-03-26T01:12:08.551Z,10.68
2018-03-26T01:12:34.685Z,10.67
2018-03-26T01:13:00.850Z,10.63
2018-03-26T01:13:26.961Z,10.71
2018-03-26T01:13:53.102Z,10.68
2018-03-26T01:14:19.241Z,10.64
2018-03-26T01:14:45.380Z,10.71
2018-03-26T01:15:11.510Z,10.67
2018-03-26T01:15:37.651Z,10.67
2018-03-26T01:16:03.784Z,10.67
2018-03-26T01:16:29.921Z,10.67
2018-03-26T01:16:56.080Z,10.64
2018-03-26T01:17:22.224Z,10.69
2018-03-26T01:17:48.362Z,10.71
2018-03-26T01:18:14.506Z,10.68
2018-03-26T01:18:40.634Z,10.75
2018-03-26T01:19:06.767Z,10.74
2018-03-26T01:19:32.900Z,10.74
2018-03-26T01:19:59.036Z,10.76
2018-03-26T01:20:25.178Z,10.68
2018-03-26T01:20:51.336Z,10.64
2018-03-26T01:21:17.475Z,10.72
2018-03-26T01:21:43.634Z,10.64
2018-03-26T01:22:09.779Z,10.69
2018-03-26T01:22:35.912Z,10.69
2018-03-26T01:23:02.049Z,10.74
2018-03-26T01:23:28.190Z,10.67
2018-03-26T01:23:54.325Z,10.64
2018-03-26T01:24:20.470Z,10.72
2018-03-26T01:24:46.621Z,10.64
2018-03-26T01:25:12.754Z,10.67
2018-03-26T01:25:38.892Z,10.64
2018-03-26T01:26:05.061Z,10.72
2018-03-26T01:26:31.201Z,10.75
2018-03-26T01:26:57.327Z,10.72
2018-03-26T01:27:23.468Z,10.64
2018-03-26T01:27:49.611Z,10.61
2018-03-26T01:28:15.743Z,10.67
2018-03-26T01:28:41.886Z,10.68
2018-03-26T01:29:08.007Z,10.72
2018-03-26T01:29:34.145Z,10.72
2018-03-26T01:30:00.285Z,10.72
2018-03-26T01:30:26.422Z,10.72
2018-03-26T01:30:52.586Z,10.63
2018-03-26T01:31:18.723Z,10.68
2018-03-26T01:31:44.859Z,10.68
2018-03-26T01:32:11.005Z,10.68
2018-03-26T01:32:37.136Z,10.69
2018-03-26T01:33:03.271Z,10.61
2018-03-26T01:33:29.412Z,10.68
2018-03-26T01:33:55.593Z,10.63
2018-03-26T01:34:21.729Z,10.69
2018-03-26T01:34:47.865Z,10.68
2018-03-26T01:35:14.025Z,10.61
2018-03-26T01:35:40.156Z,10.63
2018-03-26T01:36:06.300Z,10.61
2018-03-26T01:36:32.433Z,10.64
2018-03-26T01:36:58.595Z,10.69
2018-03-26T01:37:24.758Z,10.59
2018-03-26T01:37:50.895Z,10.67
2018-03-26T01:38:17.036Z,10.68
2018-03-26T01:38:43.172Z,10.61
2018-03-26T01:39:09.312Z,10.63
2018-03-26T01:39:35.444Z,10.64
2018-03-26T01:40:01.586Z,10.63
2018-03-26T01:40:27.720Z,10.68
2018-03-26T01:40:53.857Z,10.67
2018-03-26T01:41:20.025Z,10.67
2018-03-26T01:41:46.164Z,10.64
2018-03-26T01:42:12.295Z,10.69
2018-03-26T01:42:38.427Z,10.69
2018-03-26T01:43:04.565Z,10.64
2018-03-26T01:43:30.706Z,10.67
2018-03-26T01:43:56.845Z,10.72
2018-03-26T01:44:22.980Z,10.64
2018-03-26T01:44:49.122Z,10.63
2018-03-26T01:45:15.256Z,10.59
2018-03-26T01:45:41.397Z,10.64
2018-03-26T01:46:07.532Z,10.71
2018-03-26T01:46:33.672Z,10.67
2018-03-26T01:46:59.835Z,10.64
2018-03-26T01:47:25.975Z,10.63
2018-03-26T01:47:52.111Z,10.68
2018-03-26T01:48:18.245Z,10.72
2018-03-26T01:48:44.388Z,10.67
2018-03-26T01:49:10.516Z,10.69
2018-03-26T01:49:36.656Z,10.68
2018-03-26T01:50:02.817Z,10.64
2018-03-26T01:50:28.955Z,10.64
2018-03-26T01:50:55.091Z,10.64
2018-03-26T01:51:21.275Z,10.57
2018-03-26T01:51:47.412Z,10.56
2018-03-26T01:52:13.555Z,10.6
2018-03-26T01:52:39.693Z,10.56
2018-03-26T01:53:05.833Z,10.54
2018-03-26T01:53:31.969Z,10.59
2018-03-26T01:53:58.111Z,10.49
2018-03-26T01:54:24.244Z,10.38
2018-03-26T01:54:50.380Z,10.42
2018-03-26T01:55:16.520Z,10.4
2018-03-26T01:55:42.659Z,10.46
2018-03-26T01:56:08.796Z,10.42
2018-03-26T01:56:34.932Z,10.49
2018-03-26T01:57:01.093Z,10.48
2018-03-26T01:57:27.251Z,10.42
2018-03-26T01:57:53.395Z,10.51
2018-03-26T01:58:19.546Z,10.46
2018-03-26T01:58:45.692Z,10.59
2018-03-26T01:59:11.874Z,10.59
2018-03-26T01:59:38.011Z,10.54
2018-03-26T02:00:04.148Z,10.6
2018-03-26T02:00:30.284Z,10.59
2018-03-26T02:00:56.417Z,10.57
2018-03-26T02:01:22.558Z,10.49
2018-03-26T02:01:48.691Z,10.56
2018-03-26T02:02:14.829Z,10.57
2018-03-26T02:02:40.974Z,10.59
2018-03-26T02:03:07.104Z,10.56
2018-03-26T02:03:33.252Z,10.51
2018-03-26T02:03:59.413Z,10.49
2018-03-26T02:04:25.574Z,10.56
2018-03-26T02:04:51.710Z,10.46
2018-03-26T02:05:17.844Z,10.53
2018-03-26T02:05:44.001Z,10.46
2018-03-26T02:06:10.136Z,10.46
2018-03-26T02:06:36.274Z,10.4
2018-03-26T02:07:02.408Z,10.44
2018-03-26T02:07:28.554Z,10.48
2018-03-26T02:07:54.694Z,10.37
2018-03-26T02:08:20.828Z,10.42
2018-03-26T02:08:46.960Z,10.42
2018-03-26T02:09:13.117Z,10.41
2018-03-26T02:09:39.253Z,10.37
2018-03-26T02:10:05.389Z,10.42
2018-03-26T02:10:31.524Z,10.41
2018-03-26T02:10:57.664Z,10.42
2018-03-26T02:11:23.818Z,10.57
2018-03-26T02:11:49.955Z,10.53
2018-03-26T02:12:16.094Z,10.53
2018-03-26T02:12:42.237Z,10.56
2018-03-26T02:13:08.374Z,10.44
2018-03-26T02:13:34.505Z,10.44
2018-03-26T02:14:00.644Z,10.46
2018-03-26T02:14:26.778Z,10.54
2018-03-26T02:14:52.912Z,10.53
2018-03-26T02:15:19.052Z,10.49
2018-03-26T02:15:45.187Z,10.49
2018-03-26T02:16:11.324Z,10.54
2018-03-26T02:16:37.456Z,10.51
2018-03-26T02:17:03.599Z,10.41
2018-03-26T02:17:29.787Z,10.4
2018-03-26T02:17:55.925Z,10.4
2018-03-26T02:18:22.056Z,10.31
2018-03-26T02:18:48.190Z,10.3
2018-03-26T02:19:14.324Z,10.4
2018-03-26T02:19:40.460Z,10.37
2018-03-26T02:20:06.653Z,10.35
2018-03-26T02:20:32.732Z,10.4
2018-03-26T02:20:58.871Z,10.37
2018-03-26T02:21:25.009Z,10.4
2018-03-26T02:21:51.140Z,10.4
2018-03-26T02:22:17.286Z,10.3
2018-03-26T02:22:43.431Z,10.33
2018-03-26T02:23:09.556Z,10.33
2018-03-26T02:23:35.686Z,10.31
2018-03-26T02:24:01.824Z,10.2
2018-03-26T02:24:27.998Z,10.37
2018-03-26T02:24:54.137Z,10.25
2018-03-26T02:25:20.269Z,10.33
2018-03-26T02:25:46.404Z,10.37
2018-03-26T02:26:12.543Z,10.31
2018-03-26T02:26:38.756Z,10.34
2018-03-26T02:27:04.839Z,10.34
2018-03-26T02:27:30.986Z,10.38
2018-03-26T02:27:57.137Z,10.38
2018-03-26T02:28:23.279Z,10.31
2018-03-26T02:28:49.415Z,10.25
2018-03-26T02:29:15.556Z,10.23
2018-03-26T02:29:41.687Z,10.23
2018-03-26T02:30:07.871Z,10.23
2018-03-26T02:30:34.032Z,10.26
2018-03-26T02:31:00.192Z,10.25
2018-03-26T02:31:26.319Z,10.23
2018-03-26T02:31:52.471Z,10.28
2018-03-26T02:32:18.606Z,10.23
2018-03-26T02:32:44.750Z,10.33
2018-03-26T02:33:10.905Z,10.26
2018-03-26T02:33:37.032Z,10.2
2018-03-26T02:34:03.177Z,10.23
2018-03-26T02:34:29.314Z,10.23
2018-03-26T02:34:55.449Z,10.25
2018-03-26T02:35:21.586Z,10.25
2018-03-26T02:35:47.724Z,10.19
2018-03-26T02:36:13.861Z,10.16
2018-03-26T02:36:40.001Z,10.23
2018-03-26T02:37:06.138Z,10.16
2018-03-26T02:37:32.276Z,10.22
2018-03-26T02:37:58.430Z,10.2
2018-03-26T02:38:24.580Z,10.22
2018-03-26T02:38:50.719Z,10.17
2018-03-26T02:39:16.881Z,10.2
2018-03-26T02:39:43.035Z,10.16
2018-03-26T02:40:09.190Z,10.15
2018-03-26T02:40:35.361Z,10.1
2018-03-26T02:41:01.522Z,10.07
2018-03-26T02:41:27.676Z,9.98
2018-03-26T02:41:53.815Z,10.09
2018-03-26T02:42:19.955Z,10.01
2018-03-26T02:42:46.090Z,10.04
2018-03-26T02:43:12.243Z,10.16
2018-03-26T02:43:38.380Z,10.15
2018-03-26T02:44:04.517Z,10.13
2018-03-26T02:44:30.648Z,10.04
2018-03-26T02:44:56.824Z,10.17
2018-03-26T02:45:22.961Z,10.04
2018-03-26T02:45:49.093Z,10.15
2018-03-26T02:46:15.226Z,10.15
2018-03-26T02:46:41.393Z,10.19
2018-03-26T02:47:07.535Z,10.05
2018-03-26T02:47:33.666Z,10.09
2018-03-26T02:47:59.804Z,10.12
2018-03-26T02:48:25.943Z,10.02
2018-03-26T02:48:52.107Z,10.07
2018-03-26T02:49:18.241Z,9.97
2018-03-26T02:49:44.384Z,9.94
2018-03-26T02:50:10.525Z,9.99
2018-03-26T02:50:36.649Z,9.99
2018-03-26T02:51:02.792Z,9.95
2018-03-26T02:51:28.926Z,9.94
2018-03-26T02:51:55.091Z,9.98
2018-03-26T02:52:21.222Z,9.95
2018-03-26T02:52:47.360Z,9.99
2018-03-26T02:53:13.511Z,9.95
2018-03-26T02:53:39.671Z,10.01
2018-03-26T02:54:05.810Z,10.02
2018-03-26T02:54:31.972Z,10.09
2018-03-26T02:54:58.151Z,9.98
2018-03-26T02:55:24.240Z,9.95
2018-03-26T02:55:50.379Z,9.95
2018-03-26T02:56:16.541Z,9.99
2018-03-26T02:56:42.695Z,9.95
2018-03-26T02:57:08.832Z,9.89
2018-03-26T02:57:34.992Z,9.91
2018-03-26T02:58:01.180Z,9.92
2018-03-26T02:58:27.268Z,9.95
2018-03-26T02:58:53.412Z,9.97
2018-03-26T02:59:19.546Z,10.01
2018-03-26T02:59:45.685Z,9.94
2018-03-26T03:00:11.825Z,9.97
2018-03-26T03:00:38.013Z,10.01
2018-03-26T03:01:04.150Z,9.91
2018-03-26T03:01:30.311Z,9.94
2018-03-26T03:01:56.467Z,9.92
2018-03-26T03:02:22.634Z,9.94
2018-03-26T03:02:48.774Z,9.92
2018-03-26T03:03:14.916Z,9.91
2018-03-26T03:03:41.107Z,9.91
2018-03-26T03:04:07.201Z,9.8
2018-03-26T03:04:33.329Z,9.79
2018-03-26T03:04:59.469Z,9.79
2018-03-26T03:05:25.606Z,9.83
2018-03-26T03:05:51.777Z,9.82
2018-03-26T03:06:17.913Z,9.77
2018-03-26T03:06:44.043Z,9.91
2018-03-26T03:07:10.176Z,9.95
2018-03-26T03:07:36.317Z,9.8
2018-03-26T03:08:02.454Z,9.87
2018-03-26T03:08:28.593Z,9.79
2018-03-26T03:08:54.724Z,9.83
2018-03-26T03:09:20.863Z,9.86
2018-03-26T03:09:47.001Z,9.86
2018-03-26T03:10:13.137Z,9.76
2018-03-26T03:10:39.283Z,9.77
2018-03-26T03:11:05.408Z,9.69
2018-03-26T03:11:31.546Z,9.73
2018-03-26T03:11:57.678Z,9.8
2018-03-26T03:12:23.816Z,9.77
2018-03-26T03:12:49.955Z,9.74
2018-03-26T03:13:16.085Z,9.69
2018-03-26T03:13:42.224Z,9.69
2018-03-26T03:14:08.392Z,9.72
2018-03-26T03:14:34.525Z,9.74
2018-03-26T03:15:00.686Z,9.69
2018-03-26T03:15:26.821Z,9.76
2018-03-26T03:15:52.956Z,9.77
2018-03-26T03:16:19.095Z,9.66
2018-03-26T03:16:45.228Z,9.77
2018-03-26T03:17:11.363Z,9.76
2018-03-26T03:17:37.505Z,9.77
2018-03-26T03:18:03.662Z,9.72
2018-03-26T03:18:29.798Z,9.79
2018-03-26T03:18:55.936Z,9.74
2018-03-26T03:19:22.067Z,9.77
2018-03-26T03:19:48.205Z,9.72
2018-03-26T03:20:14.339Z,9.66
2018-03-26T03:20:40.478Z,9.66
2018-03-26T03:21:06.618Z,9.72
2018-03-26T03:21:32.785Z,9.58
2018-03-26T03:21:58.919Z,9.62
2018-03-26T03:22:25.082Z,9.66
2018-03-26T03:22:51.243Z,9.61
2018-03-26T03:23:17.379Z,9.72
2018-03-26T03:23:43.543Z,9.62
2018-03-26T03:24:09.679Z,9.72
2018-03-26T03:24:35.815Z,9.65
2018-03-26T03:25:01.949Z,9.62
2018-03-26T03:25:28.089Z,9.64
2018-03-26T03:25:54.226Z,9.69
2018-03-26T03:26:20.364Z,9.62
2018-03-26T03:26:46.501Z,9.58
2018-03-26T03:27:12.640Z,9.59
2018-03-26T03:27:38.772Z,9.62
2018-03-26T03:28:04.910Z,9.55
2018-03-26T03:28:31.050Z,9.62
2018-03-26T03:28:57.184Z,9.66
2018-03-26T03:29:23.323Z,9.58
2018-03-26T03:29:49.458Z,9.65
2018-03-26T03:30:15.609Z,9.59
2018-03-26T03:30:41.730Z,9.62
2018-03-26T03:31:07.870Z,9.58
2018-03-26T03:31:34.006Z,9.61
2018-03-26T03:32:00.158Z,9.61
2018-03-26T03:32:26.295Z,9.54
2018-03-26T03:32:52.431Z,9.54
2018-03-26T03:33:18.570Z,9.51
2018-03-26T03:33:44.703Z,9.55
2018-03-26T03:34:10.844Z,9.58
2018-03-26T03:34:36.971Z,9.54
2018-03-26T03:35:03.140Z,9.54
2018-03-26T03:35:29.278Z,9.58
2018-03-26T03:35:55.407Z,9.58
2018-03-26T03:36:21.572Z,9.5
2018-03-26T03:36:47.709Z,9.59
2018-03-26T03:37:13.850Z,9.5
2018-03-26T03:37:39.984Z,9.56
2018-03-26T03:38:06.120Z,9.58
2018-03-26T03:38:32.259Z,9.64
2018-03-26T03:38:58.391Z,9.62
2018-03-26T03:39:24.534Z,9.64
2018-03-26T03:39:50.670Z,9.62
2018-03-26T03:40:16.806Z,9.58
2018-03-26T03:40:42.939Z,9.56
2018-03-26T03:41:09.129Z,9.58
2018-03-26T03:41:35.214Z,9.55
2018-03-26T03:42:01.342Z,9.62
2018-03-26T03:42:27.482Z,9.61
2018-03-26T03:42:53.627Z,9.62
2018-03-26T03:43:19.764Z,9.61
2018-03-26T03:43:45.898Z,9.54
2018-03-26T03:44:12.040Z,9.51
2018-03-26T03:44:38.168Z,9.54
2018-03-26T03:45:04.334Z,9.58
2018-03-26T03:45:30.499Z,9.61
2018-03-26T03:45:56.637Z,9.62
2018-03-26T03:46:22.771Z,9.62
2018-03-26T03:46:48.906Z,9.61
2018-03-26T03:47:15.039Z,9.62
2018-03-26T03:47:41.176Z,9.64
2018-03-26T03:48:07.317Z,9.61
2018-03-26T03:48:33.448Z,9.62
2018-03-26T03:48:59.589Z,9.58
2018-03-26T03:49:25.755Z,9.61
2018-03-26T03:49:51.886Z,9.65
2018-03-26T03:50:18.020Z,9.62
2018-03-26T03:50:44.160Z,9.61
2018-03-26T03:51:10.291Z,9.62
2018-03-26T03:51:36.428Z,9.58
2018-03-26T03:52:02.591Z,9.68
2018-03-26T03:52:28.753Z,9.64
2018-03-26T03:52:54.923Z,9.73
2018-03-26T03:53:21.061Z,9.72
2018-03-26T03:53:47.193Z,9.62
2018-03-26T03:54:13.332Z,9.66
2018-03-26T03:54:39.471Z,9.62
2018-03-26T03:55:05.602Z,9.62
2018-03-26T03:55:31.741Z,9.64
2018-03-26T03:55:57.883Z,9.73
2018-03-26T03:56:24.044Z,9.58
2018-03-26T03:56:50.176Z,9.65
2018-03-26T03:57:16.313Z,9.64
2018-03-26T03:57:42.513Z,9.61
2018-03-26T03:58:08.600Z,9.61
2018-03-26T03:58:34.736Z,9.61
2018-03-26T03:59:00.896Z,9.64
2018-03-26T03:59:27.032Z,9.66
2018-03-26T03:59:53.169Z,9.61
2018-03-26T04:00:19.307Z,9.64
2018-03-26T04:00:45.452Z,9.65
2018-03-26T04:01:11.603Z,9.66
2018-03-26T04:01:37.739Z,9.64
2018-03-26T04:02:03.882Z,9.77
2018-03-26T04:02:30.020Z,9.68
2018-03-26T04:02:56.157Z,9.8
2018-03-26T04:03:22.291Z,9.65
2018-03-26T04:03:48.429Z,9.72
2018-03-26T04:04:14.565Z,9.72
2018-03-26T04:04:40.728Z,9.74
2018-03-26T04:05:06.872Z,9.62
2018-03-26T04:05:33.016Z,9.66
2018-03-26T04:05:59.151Z,9.64
2018-03-26T04:06:25.309Z,9.54
2018-03-26T04:06:51.438Z,9.59
2018-03-26T04:07:17.576Z,9.51
2018-03-26T04:07:43.716Z,9.59
2018-03-26T04:08:09.847Z,9.54
2018-03-26T04:08:36.009Z,9.54
2018-03-26T04:09:02.168Z,9.54
2018-03-26T04:09:28.330Z,9.58
2018-03-26T04:09:54.462Z,9.47
2018-03-26T04:10:20.626Z,9.54
2018-03-26T04:10:46.761Z,9.47
2018-03-26T04:11:12.909Z,9.46
2018-03-26T04:11:39.039Z,9.51
2018-03-26T04:12:05.177Z,9.5
2018-03-26T04:12:31.319Z,9.58
2018-03-26T04:12:57.480Z,9.59
2018-03-26T04:13:23.611Z,9.55
2018-03-26T04:13:49.751Z,9.54
2018-03-26T04:14:15.920Z,9.51
2018-03-26T04:14:42.078Z,9.55
2018-03-26T04:15:08.238Z,9.58
2018-03-26T04:15:34.372Z,9.56
2018-03-26T04:16:00.513Z,9.64
2018-03-26T04:16:26.654Z,9.62
2018-03-26T04:16:52.784Z,9.62
2018-03-26T04:17:18.927Z,9.66
2018-03-26T04:17:45.059Z,9.61
2018-03-26T04:18:11.204Z,9.65
2018-03-26T04:18:37.337Z,9.65
2018-03-26T04:19:03.478Z,9.65
2018-03-26T04:19:29.615Z,9.58
2018-03-26T04:19:55.752Z,9.64
2018-03-26T04:20:21.914Z,9.58
2018-03-26T04:20:48.047Z,9.65
2018-03-26T04:21:14.176Z,9.66
2018-03-26T04:21:40.319Z,9.69
2018-03-26T04:22:06.477Z,9.62
2018-03-26T04:22:32.607Z,9.72
2018-03-26T04:22:58.749Z,9.74
2018-03-26T04:23:24.884Z,9.66
2018-03-26T04:23:51.024Z,9.65
2018-03-26T04:24:17.161Z,9.61
2018-03-26T04:24:43.296Z,9.58
2018-03-26T04:25:09.436Z,9.64
2018-03-26T04:25:35.568Z,9.73
2018-03-26T04:26:01.726Z,9.64
2018-03-26T04:26:27.852Z,9.59
2018-03-26T04:26:53.985Z,9.61
2018-03-26T04:27:20.124Z,9.62
2018-03-26T04:27:46.257Z,9.65
2018-03-26T04:28:12.397Z,9.58
2018-03-26T04:28:38.526Z,9.66
2018-03-26T04:29:04.665Z,9.55
2018-03-26T04:29:30.802Z,9.58
2018-03-26T04:29:56.943Z,9.56
2018-03-26T04:30:23.082Z,9.61
2018-03-26T04:30:49.216Z,9.64
2018-03-26T04:31:15.358Z,9.58
2018-03-26T04:31:41.497Z,9.58
2018-03-26T04:32:07.702Z,9.54
2018-03-26T04:32:33.807Z,9.47
2018-03-26T04:32:59.910Z,9.55
2018-03-26T04:33:26.047Z,9.55
2018-03-26T04:33:52.184Z,9.51
2018-03-26T04:34:18.316Z,9.51
2018-03-26T04:34:44.457Z,9.5
2018-03-26T04:35:10.591Z,9.55
2018-03-26T04:35:36.725Z,9.58
2018-03-26T04:36:02.865Z,9.54
2018-03-26T04:36:29.022Z,9.58
2018-03-26T04:36:55.154Z,9.58
2018-03-26T04:37:21.300Z,9.61
2018-03-26T04:37:47.431Z,9.51
2018-03-26T04:38:13.590Z,9.5
2018-03-26T04:38:39.730Z,9.51
2018-03-26T04:39:05.868Z,9.54
2018-03-26T04:39:31.998Z,9.5
2018-03-26T04:39:58.140Z,9.48
2018-03-26T04:40:24.272Z,9.5
2018-03-26T04:40:50.437Z,9.61
2018-03-26T04:41:16.580Z,9.48
2018-03-26T04:41:42.773Z,9.43
2018-03-26T04:42:08.902Z,9.47
2018-03-26T04:42:35.036Z,9.47
2018-03-26T04:43:01.183Z,9.46
2018-03-26T04:43:27.340Z,9.44
2018-03-26T04:43:53.479Z,9.44
2018-03-26T04:44:19.611Z,9.44
2018-03-26T04:44:45.750Z,9.47
2018-03-26T04:45:11.905Z,9.41
2018-03-26T04:45:38.055Z,9.41
2018-03-26T04:46:04.177Z,9.37
2018-03-26T04:46:30.316Z,9.43
2018-03-26T04:46:56.476Z,9.41
2018-03-26T04:47:22.615Z,9.43
2018-03-26T04:47:48.751Z,9.43
2018-03-26T04:48:14.887Z,9.4
2018-03-26T04:48:41.024Z,9.39
2018-03-26T04:49:07.159Z,9.37
2018-03-26T04:49:33.299Z,9.43
2018-03-26T04:49:59.430Z,9.4
2018-03-26T04:50:25.575Z,9.43
2018-03-26T04:50:51.710Z,9.4
2018-03-26T04:51:17.848Z,9.39
2018-03-26T04:51:43.984Z,9.36
2018-03-26T04:52:10.120Z,9.43
2018-03-26T04:52:36.256Z,9.44
2018-03-26T04:53:02.396Z,9.41
2018-03-26T04:53:28.530Z,9.55
2018-03-26T04:53:54.674Z,9.46
2018-03-26T04:54:20.810Z,9.61
2018-03-26T04:54:46.947Z,9.44
2018-03-26T04:55:13.082Z,9.43
2018-03-26T04:55:39.220Z,9.47
2018-03-26T04:56:05.362Z,9.46
2018-03-26T04:56:31.501Z,9.46
2018-03-26T04:56:57.638Z,9.44
2018-03-26T04:57:23.779Z,9.48
2018-03-26T04:57:49.922Z,9.46
2018-03-26T04:58:16.055Z,9.41
2018-03-26T04:58:42.191Z,9.48
2018-03-26T04:59:08.327Z,9.44
2018-03-26T04:59:34.488Z,9.46
2018-03-26T05:00:00.626Z,9.48
2018-03-26T05:00:26.763Z,9.48
2018-03-26T05:00:52.896Z,9.47
2018-03-26T05:01:19.034Z,9.46
2018-03-26T05:01:45.169Z,9.41
2018-03-26T05:02:11.363Z,9.4
2018-03-26T05:02:37.439Z,9.41
2018-03-26T05:03:03.572Z,9.39
2018-03-26T05:03:29.713Z,9.34
2018-03-26T05:03:55.905Z,9.28
2018-03-26T05:04:22.040Z,9.29
2018-03-26T05:04:48.179Z,9.21
2018-03-26T05:05:14.338Z,9.26
2018-03-26T05:05:40.489Z,9.37
2018-03-26T05:06:06.619Z,9.29
2018-03-26T05:06:32.761Z,9.32
2018-03-26T05:06:58.900Z,9.36
2018-03-26T05:07:25.033Z,9.29
2018-03-26T05:07:51.167Z,9.34
2018-03-26T05:08:17.304Z,9.29
2018-03-26T05:08:43.456Z,9.39
2018-03-26T05:09:09.590Z,9.29
2018-03-26T05:09:35.733Z,9.36
2018-03-26T05:10:01.890Z,9.4
2018-03-26T05:10:28.017Z,9.36
2018-03-26T05:10:54.197Z,9.4
2018-03-26T05:11:20.343Z,9.44
2018-03-26T05:11:46.481Z,9.44
2018-03-26T05:12:12.620Z,9.39
2018-03-26T05:12:38.777Z,9.29
2018-03-26T05:13:04.920Z,9.41
2018-03-26T05:13:31.058Z,9.41
2018-03-26T05:13:57.197Z,9.44
2018-03-26T05:14:23.339Z,9.43
2018-03-26T05:14:49.463Z,9.43
2018-03-26T05:15:15.604Z,9.47
2018-03-26T05:15:41.748Z,9.44
2018-03-26T05:16:07.886Z,9.46
2018-03-26T05:16:34.022Z,9.4
2018-03-26T05:17:00.159Z,9.43
2018-03-26T05:17:26.301Z,9.4
2018-03-26T05:17:52.438Z,9.41
2018-03-26T05:18:18.567Z,9.32
2018-03-26T05:18:44.709Z,9.41
2018-03-26T05:19:10.840Z,9.43
2018-03-26T05:19:36.973Z,9.46
2018-03-26T05:20:03.115Z,9.56
2018-03-26T05:20:29.253Z,9.44
2018-03-26T05:20:55.386Z,9.48
2018-03-26T05:21:21.521Z,9.43
2018-03-26T05:21:47.659Z,9.48
2018-03-26T05:22:13.791Z,9.47
2018-03-26T05:22:39.958Z,9.54
2018-03-26T05:23:06.092Z,9.51
2018-03-26T05:23:32.235Z,9.51
2018-03-26T05:23:58.365Z,9.56
2018-03-26T05:24:24.507Z,9.5
2018-03-26T05:24:50.644Z,9.54
2018-03-26T05:25:16.786Z,9.51
2018-03-26T05:25:42.917Z,9.51
2018-03-26T05:26:09.080Z,9.55
2018-03-26T05:26:35.215Z,9.55
2018-03-26T05:27:01.353Z,9.48
2018-03-26T05:27:27.486Z,9.44
2018-03-26T05:27:53.627Z,9.62
2018-03-26T05:28:19.766Z,9.59
2018-03-26T05:28:45.898Z,9.55
2018-03-26T05:29:12.034Z,9.51
2018-03-26T05:29:38.171Z,9.5
2018-03-26T05:30:04.317Z,9.54
2018-03-26T05:30:30.446Z,9.48
2018-03-26T05:30:56.593Z,9.47
2018-03-26T05:31:22.745Z,9.41
2018-03-26T05:31:48.885Z,9.47
2018-03-26T05:32:15.052Z,9.47
2018-03-26T05:32:41.205Z,9.44
2018-03-26T05:33:07.364Z,9.41
2018-03-26T05:33:33.499Z,9.43
2018-03-26T05:33:59.634Z,9.43
2018-03-26T05:34:25.775Z,9.41
2018-03-26T05:34:51.904Z,9.32
2018-03-26T05:35:18.042Z,9.43
2018-03-26T05:35:44.177Z,9.36
2018-03-26T05:36:10.313Z,9.32
2018-03-26T05:36:36.455Z,9.28
2018-03-26T05:37:02.592Z,9.23
2018-03-26T05:37:28.778Z,9.25
2018-03-26T05:37:54.973Z,9.23
2018-03-26T05:38:21.110Z,9.26
2018-03-26T05:38:47.261Z,9.22
2018-03-26T05:39:13.409Z,9.28
2018-03-26T05:39:39.543Z,9.19
2018-03-26T05:40:05.679Z,9.21
2018-03-26T05:40:31.827Z,9.28
2018-03-26T05:40:57.962Z,9.28
2018-03-26T05:41:24.098Z,9.26
2018-03-26T05:41:50.235Z,9.29
2018-03-26T05:42:16.375Z,9.34
2018-03-26T05:42:42.514Z,9.31
2018-03-26T05:43:08.694Z,9.34